createdAt,value
2018-01-15T00:00:37.814Z,-2.50
2018-01-15T00:03:05.421Z,-2.50
2018-01-15T00:05:33.048Z,-2.60
2018-01-15T00:08:00.613Z,-2.60
2018-01-15T00:10:28.206Z,-2.70
2018-01-15T00:12:56.203Z,-2.70
2018-01-15T00:15:23.775Z,-2.70
2018-01-15T00:17:51.382Z,-2.80
2018-01-15T00:20:18.969Z,-2.80
2018-01-15T00:22:46.554Z,-2.80
2018-01-15T00:25:14.141Z,-2.80
2018-01-15T00:27:41.739Z,-2.80
2018-01-15T00:30:09.353Z,-2.80
2018-01-15T00:32:37.226Z,-2.90
2018-01-15T00:35:04.793Z,-2.90
2018-01-15T00:37:32.442Z,-2.80
2018-01-15T00:40:00.076Z,-2.80
2018-01-15T00:42:27.897Z,-2.70
2018-01-15T00:44:55.866Z,-2.80
2018-01-15T00:47:23.502Z,-2.80
2018-01-15T00:49:51.122Z,-2.90
2018-01-15T00:52:18.760Z,-2.80
2018-01-15T00:54:46.328Z,-2.80
2018-01-15T00:57:13.943Z,-2.90
2018-01-15T00:59:41.526Z,-2.90
2018-01-15T01:02:09.104Z,-2.90
2018-01-15T01:04:36.717Z,-2.90
2018-01-15T01:07:04.361Z,-2.90
2018-01-15T01:09:31.936Z,-2.80
2018-01-15T01:11:59.533Z,-2.90
2018-01-15T01:14:27.179Z,-2.90
2018-01-15T01:16:54.777Z,-2.90
2018-01-15T01:19:22.339Z,-2.90
2018-01-15T01:21:49.896Z,-3.00
2018-01-15T01:24:17.531Z,-3.00
2018-01-15T01:26:45.114Z,-3.10
2018-01-15T01:29:12.719Z,-3.10
2018-01-15T01:31:40.322Z,-3.10
2018-01-15T01:34:07.940Z,-3.20
2018-01-15T01:36:35.510Z,-3.20
2018-01-15T01:39:03.109Z,-3.20
2018-01-15T01:41:30.678Z,-3.20
2018-01-15T01:43:58.274Z,-3.20
2018-01-15T01:46:25.870Z,-3.20
2018-01-15T01:48:59.424Z,-3.20
2018-01-15T01:51:27.000Z,-3.10
2018-01-15T01:53:54.819Z,-3.10
2018-01-15T01:56:22.394Z,-3.10
2018-01-15T01:58:50.138Z,-3.10
2018-01-15T02:01:17.726Z,-3.10
2018-01-15T02:03:45.324Z,-3.00
2018-01-15T02:06:12.899Z,-3.10
2018-01-15T02:08:40.523Z,-3.10
2018-01-15T02:11:08.536Z,-3.10
2018-01-15T02:13:36.154Z,-3.10
2018-01-15T02:16:03.770Z,-3.10
2018-01-15T02:18:31.390Z,-3.10
2018-01-15T02:20:58.961Z,-3.20
2018-01-15T02:23:26.551Z,-3.20
2018-01-15T02:25:54.127Z,-3.20
2018-01-15T02:28:21.738Z,-3.20
2018-01-15T02:30:49.318Z,-3.20
2018-01-15T02:33:16.923Z,-3.20
2018-01-15T02:35:44.923Z,-3.20
2018-01-15T02:38:12.504Z,-3.20
2018-01-15T02:40:40.099Z,-3.20
2018-01-15T02:43:07.728Z,-3.20
2018-01-15T02:45:35.488Z,-3.10
2018-01-15T02:48:03.083Z,-3.10
2018-01-15T02:50:30.762Z,-3.10
2018-01-15T02:52:58.365Z,-3.20
2018-01-15T02:55:25.974Z,-3.20
2018-01-15T02:57:53.555Z,-3.20
2018-01-15T03:00:21.185Z,-3.20
2018-01-15T03:02:48.752Z,-3.10
2018-01-15T03:05:16.360Z,-3.10
2018-01-15T03:07:43.995Z,-3.00
2018-01-15T03:10:11.665Z,-2.90
2018-01-15T03:12:39.234Z,-2.80
2018-01-15T03:15:06.846Z,-2.70
2018-01-15T03:17:34.438Z,-2.60
2018-01-15T03:20:02.029Z,-2.60
2018-01-15T03:22:29.603Z,-2.50
2018-01-15T03:24:57.206Z,-2.40
2018-01-15T03:27:24.799Z,-2.40
2018-01-15T03:29:52.418Z,-2.40
2018-01-15T03:32:20.016Z,-2.30
2018-01-15T03:34:47.819Z,-2.30
2018-01-15T03:37:15.472Z,-2.30
2018-01-15T03:39:43.090Z,-2.20
2018-01-15T03:42:10.689Z,-2.20
2018-01-15T03:44:38.311Z,-2.20
2018-01-15T03:47:05.923Z,-2.20
2018-01-15T03:49:33.549Z,-2.20
2018-01-15T03:52:01.185Z,-2.10
2018-01-15T03:54:28.786Z,-2.20
2018-01-15T03:56:56.387Z,-2.20
2018-01-15T03:59:23.979Z,-2.10
2018-01-15T04:01:51.612Z,-2.10
2018-01-15T04:04:19.207Z,-2.10
2018-01-15T04:06:47.040Z,-2.00
2018-01-15T04:09:14.634Z,-2.00
2018-01-15T04:11:42.266Z,-1.90
2018-01-15T04:14:09.832Z,-1.90
2018-01-15T04:16:37.454Z,-1.90
2018-01-15T04:19:05.022Z,-1.90
2018-01-15T04:21:32.632Z,-1.90
2018-01-15T04:24:00.247Z,-2.00
2018-01-15T04:26:27.851Z,-2.00
2018-01-15T04:28:55.474Z,-2.00
2018-01-15T04:31:23.126Z,-2.00
2018-01-15T04:33:50.682Z,-2.00
2018-01-15T04:36:18.278Z,-2.00
2018-01-15T04:38:46.142Z,-1.90
2018-01-15T04:41:13.774Z,-2.00
2018-01-15T04:43:41.396Z,-2.10
2018-01-15T04:46:09.003Z,-2.10
2018-01-15T04:48:36.614Z,-2.10
2018-01-15T04:51:04.248Z,-2.20
2018-01-15T04:53:31.861Z,-2.20
2018-01-15T04:55:59.697Z,-2.20
2018-01-15T04:58:27.318Z,-2.20
2018-01-15T05:00:54.940Z,-2.20
2018-01-15T05:03:22.539Z,-2.30
2018-01-15T05:05:50.152Z,-2.30
2018-01-15T05:08:17.752Z,-2.40
2018-01-15T05:10:45.501Z,-2.40
2018-01-15T05:13:13.127Z,-2.50
2018-01-15T05:15:40.742Z,-2.50
2018-01-15T05:18:08.455Z,-2.40
2018-01-15T05:20:36.033Z,-2.50
2018-01-15T05:23:03.656Z,-2.50
2018-01-15T05:25:31.275Z,-2.60
2018-01-15T05:27:58.900Z,-2.60
2018-01-15T05:30:26.501Z,-2.60
2018-01-15T05:32:54.145Z,-2.70
2018-01-15T05:35:21.744Z,-2.70
2018-01-15T05:37:49.716Z,-2.70
2018-01-15T05:40:17.317Z,-2.80
2018-01-15T05:42:44.920Z,-2.80
2018-01-15T05:45:12.578Z,-2.80
2018-01-15T05:47:40.201Z,-2.90
2018-01-15T05:50:07.837Z,-2.80
2018-01-15T05:52:35.463Z,-2.80
2018-01-15T05:55:03.058Z,-2.90
2018-01-15T05:57:30.695Z,-2.90
2018-01-15T05:59:58.284Z,-2.90
2018-01-15T06:02:26.459Z,-3.00
2018-01-15T06:04:54.046Z,-3.00
2018-01-15T06:07:21.684Z,-3.00
2018-01-15T06:09:49.554Z,-3.00
2018-01-15T06:12:17.476Z,-3.00
2018-01-15T06:14:45.491Z,-2.90
2018-01-15T06:17:13.103Z,-2.90
2018-01-15T06:19:40.719Z,-2.80
2018-01-15T06:22:08.312Z,-2.90
2018-01-15T06:24:35.929Z,-2.90
2018-01-15T06:27:03.528Z,-2.90
2018-01-15T06:29:31.132Z,-2.90
2018-01-15T06:31:58.983Z,-2.80
2018-01-15T06:34:28.563Z,-2.80
2018-01-15T06:36:56.686Z,-2.70
2018-01-15T06:39:25.300Z,-2.60
2018-01-15T06:41:52.952Z,-2.60
2018-01-15T06:44:20.561Z,-2.60
2018-01-15T06:46:48.132Z,-2.60
2018-01-15T06:49:16.959Z,-2.70
2018-01-15T06:51:44.536Z,-2.70
2018-01-15T06:54:12.134Z,-2.80
2018-01-15T06:56:39.716Z,-2.80
2018-01-15T06:59:07.360Z,-2.70
2018-01-15T07:01:34.939Z,-2.60
2018-01-15T07:04:02.528Z,-2.50
2018-01-15T07:06:30.119Z,-2.50
2018-01-15T07:08:57.720Z,-2.60
2018-01-15T07:11:25.291Z,-2.60
2018-01-15T07:13:52.874Z,-2.70
2018-01-15T07:16:20.447Z,-2.70
2018-01-15T07:18:48.084Z,-2.70
2018-01-15T07:21:15.695Z,-2.60
2018-01-15T07:23:43.343Z,-2.60
2018-01-15T07:26:10.964Z,-2.60
2018-01-15T07:28:38.970Z,-2.40
2018-01-15T07:31:06.536Z,-2.40
2018-01-15T07:33:34.134Z,-2.30
2018-01-15T07:36:01.710Z,-2.20
2018-01-15T07:38:30.143Z,-2.20
2018-01-15T07:40:57.744Z,-2.20
2018-01-15T07:43:25.343Z,-2.10
2018-01-15T07:45:53.023Z,-2.00
2018-01-15T07:48:20.642Z,-1.90
2018-01-15T07:50:48.252Z,-1.80
2018-01-15T07:53:16.722Z,-1.80
2018-01-15T07:55:44.362Z,-1.70
2018-01-15T07:58:11.960Z,-1.60
2018-01-15T08:00:39.702Z,-1.50
2018-01-15T08:03:13.194Z,-1.40
2018-01-15T08:05:40.778Z,-1.30
2018-01-15T08:08:08.372Z,-1.20
2018-01-15T08:10:36.034Z,-1.10
2018-01-15T08:13:03.611Z,-1.00
2018-01-15T08:15:31.269Z,-1.00
2018-01-15T08:18:10.219Z,-0.90
2018-01-15T08:20:38.011Z,-0.80
2018-01-15T08:23:11.959Z,-0.70
2018-01-15T08:25:40.328Z,-0.50
2018-01-15T08:28:09.769Z,-0.40
2018-01-15T08:30:37.463Z,-0.20
2018-01-15T08:33:05.210Z,0.00
2018-01-15T08:35:32.864Z,0.20
2018-01-15T08:38:00.468Z,0.30
2018-01-15T08:40:28.175Z,0.40
2018-01-15T08:42:58.886Z,0.40
2018-01-15T08:45:26.478Z,0.40
2018-01-15T08:47:54.080Z,0.50
2018-01-15T08:50:21.683Z,0.60
2018-01-15T08:52:49.855Z,0.70
2018-01-15T08:55:17.468Z,0.70
2018-01-15T08:57:45.444Z,0.70
2018-01-15T09:00:13.024Z,0.70
2018-01-15T09:02:40.614Z,0.70
2018-01-15T09:05:08.215Z,0.80
2018-01-15T09:07:36.330Z,0.80
2018-01-15T09:10:03.910Z,0.80
2018-01-15T09:12:31.554Z,0.80
2018-01-15T09:14:59.210Z,1.00
2018-01-15T09:17:26.800Z,1.10
2018-01-15T09:19:54.396Z,1.20
2018-01-15T09:22:22.045Z,1.30
2018-01-15T09:24:49.615Z,1.30
2018-01-15T09:27:17.227Z,1.40
2018-01-15T09:29:44.811Z,1.50
2018-01-15T09:32:12.441Z,1.50
2018-01-15T09:34:40.035Z,1.60
2018-01-15T09:37:07.796Z,1.70
2018-01-15T09:39:35.392Z,1.70
2018-01-15T09:42:03.167Z,1.70
2018-01-15T09:44:30.748Z,1.80
2018-01-15T09:46:58.723Z,1.90
2018-01-15T09:49:26.323Z,1.90
2018-01-15T09:52:01.385Z,1.90
2018-01-15T09:54:29.969Z,2.00
2018-01-15T09:56:57.578Z,2.10
2018-01-15T09:59:25.172Z,2.10
2018-01-15T10:01:52.775Z,2.20
2018-01-15T10:04:20.448Z,2.20
2018-01-15T10:06:48.084Z,2.20
2018-01-15T10:09:15.931Z,2.20
2018-01-15T10:11:43.495Z,2.10
2018-01-15T10:14:11.169Z,2.10
2018-01-15T10:16:38.796Z,2.10
2018-01-15T10:19:06.444Z,1.90
2018-01-15T10:21:34.060Z,1.80
2018-01-15T10:24:01.669Z,1.70
2018-01-15T10:26:29.271Z,1.70
2018-01-15T10:28:56.876Z,1.70
2018-01-15T10:31:24.496Z,1.80
2018-01-15T10:34:04.779Z,1.90
2018-01-15T10:36:32.416Z,2.00
2018-01-15T10:38:59.974Z,2.00
2018-01-15T10:41:27.565Z,2.00
2018-01-15T10:43:55.146Z,2.00
2018-01-15T10:46:22.741Z,2.10
2018-01-15T10:48:50.320Z,2.10
2018-01-15T10:51:17.932Z,2.10
2018-01-15T10:53:45.581Z,2.20
2018-01-15T10:56:13.151Z,2.20
2018-01-15T10:58:40.912Z,2.20
2018-01-15T11:01:14.219Z,2.20
2018-01-15T11:03:41.869Z,2.30
2018-01-15T11:06:09.630Z,2.40
2018-01-15T11:08:37.294Z,2.50
2018-01-15T11:11:05.154Z,2.40
2018-01-15T11:13:32.772Z,2.20
2018-01-15T11:16:00.474Z,2.20
2018-01-15T11:18:39.909Z,2.30
2018-01-15T11:21:07.794Z,2.30
2018-01-15T11:23:35.848Z,2.50
2018-01-15T11:26:03.428Z,2.60
2018-01-15T11:28:31.037Z,2.70
2018-01-15T11:30:58.603Z,2.80
2018-01-15T11:33:26.195Z,3.00
2018-01-15T11:35:53.763Z,3.20
2018-01-15T11:38:21.382Z,3.20
2018-01-15T11:40:48.976Z,3.20
2018-01-15T11:43:16.566Z,3.10
2018-01-15T11:45:44.164Z,3.20
2018-01-15T11:48:11.806Z,3.30
2018-01-15T11:50:39.395Z,3.40
2018-01-15T11:53:07.239Z,3.60
2018-01-15T11:55:34.791Z,3.80
2018-01-15T11:58:02.383Z,3.90
2018-01-15T12:00:33.409Z,4.00
2018-01-15T12:03:00.977Z,4.10
2018-01-15T12:05:28.707Z,4.20
2018-01-15T12:07:56.335Z,4.20
2018-01-15T12:10:23.948Z,4.20
2018-01-15T12:12:51.527Z,4.30
2018-01-15T12:15:19.114Z,4.30
2018-01-15T12:17:46.673Z,4.40
2018-01-15T12:20:14.308Z,4.40
2018-01-15T12:22:41.895Z,4.30
2018-01-15T12:25:09.683Z,4.20
2018-01-15T12:27:37.295Z,4.10
2018-01-15T12:30:10.579Z,4.10
2018-01-15T12:32:38.212Z,4.10
2018-01-15T12:35:05.830Z,4.20
2018-01-15T12:37:33.801Z,4.30
2018-01-15T12:40:01.432Z,4.30
2018-01-15T12:42:29.008Z,4.30
2018-01-15T12:44:56.604Z,4.30
2018-01-15T12:47:24.171Z,4.20
2018-01-15T12:49:51.759Z,4.20
2018-01-15T12:52:19.377Z,4.30
2018-01-15T12:54:46.984Z,4.30
2018-01-15T12:57:14.581Z,4.50
2018-01-15T12:59:42.161Z,4.60
2018-01-15T13:02:09.727Z,4.70
2018-01-15T13:04:37.387Z,4.70
2018-01-15T13:07:04.947Z,4.80
2018-01-15T13:09:32.567Z,4.80
2018-01-15T13:12:00.548Z,4.80
2018-01-15T13:14:28.210Z,4.80
2018-01-15T13:16:55.837Z,4.70
2018-01-15T13:19:23.415Z,4.60
2018-01-15T13:21:51.416Z,4.60
2018-01-15T13:24:19.009Z,4.60
2018-01-15T13:26:46.595Z,4.60
2018-01-15T13:29:14.179Z,4.50
2018-01-15T13:31:41.806Z,4.50
2018-01-15T13:34:09.438Z,4.40
2018-01-15T13:36:37.050Z,4.40
2018-01-15T13:39:04.616Z,4.40
2018-01-15T13:41:32.240Z,4.40
2018-01-15T13:43:59.798Z,4.40
2018-01-15T13:46:27.399Z,4.30
2018-01-15T13:48:54.974Z,4.30
2018-01-15T13:51:22.539Z,4.40
2018-01-15T13:53:50.124Z,4.30
2018-01-15T13:56:17.729Z,4.30
2018-01-15T13:58:45.301Z,4.30
2018-01-15T14:01:12.906Z,4.20
2018-01-15T14:03:40.512Z,4.00
2018-01-15T14:06:08.146Z,4.00
2018-01-15T14:08:35.752Z,3.90
2018-01-15T14:11:03.433Z,3.90
2018-01-15T14:13:31.004Z,4.00
2018-01-15T14:15:58.590Z,4.00
2018-01-15T14:18:26.254Z,4.20
2018-01-15T14:20:53.870Z,4.20
2018-01-15T14:23:28.274Z,4.30
2018-01-15T14:25:55.908Z,4.40
2018-01-15T14:28:23.503Z,4.50
2018-01-15T14:30:51.073Z,4.60
2018-01-15T14:33:18.768Z,4.70
2018-01-15T14:35:46.711Z,4.80
2018-01-15T14:38:14.359Z,4.80
2018-01-15T14:40:42.324Z,4.70
2018-01-15T14:43:09.944Z,4.70
2018-01-15T14:45:37.545Z,4.60
2018-01-15T14:48:05.197Z,4.60
2018-01-15T14:50:32.779Z,4.50
2018-01-15T14:53:00.396Z,4.40
2018-01-15T14:55:29.241Z,4.30
2018-01-15T14:57:56.876Z,4.30
2018-01-15T15:00:24.494Z,4.20
2018-01-15T15:02:52.114Z,4.20
2018-01-15T15:05:19.912Z,4.10
2018-01-15T15:07:47.709Z,4.00
2018-01-15T15:10:15.332Z,4.00
2018-01-15T15:12:43.211Z,3.90
2018-01-15T15:15:12.002Z,3.80
2018-01-15T15:17:39.951Z,3.80
2018-01-15T15:20:08.655Z,3.80
2018-01-15T15:22:36.235Z,3.90
2018-01-15T15:25:03.786Z,4.40
2018-01-15T15:27:31.431Z,5.10
2018-01-15T15:30:00.095Z,6.00
2018-01-15T15:32:27.697Z,6.70
2018-01-15T15:34:55.260Z,7.10
2018-01-15T15:37:22.853Z,7.30
2018-01-15T15:39:50.772Z,7.50
2018-01-15T15:42:18.416Z,7.70
2018-01-15T15:44:46.004Z,7.80
2018-01-15T15:47:13.558Z,7.90
2018-01-15T15:49:41.495Z,8.10
2018-01-15T15:52:11.115Z,8.20
2018-01-15T15:54:38.807Z,8.20
2018-01-15T15:57:06.448Z,8.10
2018-01-15T15:59:34.090Z,8.10
2018-01-15T16:02:01.636Z,8.10
2018-01-15T16:04:29.306Z,8.10
2018-01-15T16:06:56.879Z,8.00
2018-01-15T16:09:24.495Z,8.00
2018-01-15T16:11:52.124Z,8.00
2018-01-15T16:14:19.764Z,8.00
2018-01-15T16:16:47.355Z,8.10
2018-01-15T16:19:15.339Z,8.00
2018-01-15T16:21:42.956Z,8.10
2018-01-15T16:24:10.542Z,8.10
2018-01-15T16:26:38.164Z,8.10
2018-01-15T16:29:06.936Z,8.10
2018-01-15T16:31:34.868Z,8.10
2018-01-15T16:34:02.497Z,8.10
2018-01-15T16:36:30.073Z,8.10
2018-01-15T16:38:57.678Z,8.00
2018-01-15T16:41:28.481Z,8.00
2018-01-15T16:43:56.702Z,8.10
2018-01-15T16:46:24.476Z,8.10
2018-01-15T16:48:52.080Z,8.10
2018-01-15T16:51:19.695Z,8.00
2018-01-15T16:53:47.339Z,7.90
2018-01-15T16:56:15.104Z,7.80
2018-01-15T16:58:43.584Z,7.70
2018-01-15T17:01:11.250Z,7.70
2018-01-15T17:03:39.102Z,7.80
2018-01-15T17:06:06.753Z,7.80
2018-01-15T17:08:34.340Z,7.70
2018-01-15T17:11:01.968Z,7.70
2018-01-15T17:13:29.527Z,7.70
2018-01-15T17:15:57.125Z,7.70
2018-01-15T17:18:24.692Z,7.60
2018-01-15T17:20:52.297Z,7.70
2018-01-15T17:23:19.871Z,7.80
2018-01-15T17:25:51.679Z,7.80
2018-01-15T18:14:22.010Z,7.20
2018-01-15T18:16:49.599Z,7.20
2018-01-15T18:19:17.267Z,7.20
2018-01-15T18:21:44.891Z,7.20
2018-01-15T18:24:12.718Z,7.10
2018-01-15T18:26:40.348Z,7.00
2018-01-15T18:29:08.000Z,6.90
2018-01-15T18:31:35.579Z,6.80
2018-01-15T18:34:03.349Z,6.80
2018-01-15T18:39:34.625Z,6.70
2018-01-15T18:42:21.566Z,6.60
2018-01-15T18:44:51.102Z,6.60
2018-01-15T18:47:18.960Z,6.50
2018-01-15T18:49:50.337Z,6.50
2018-01-15T18:52:17.926Z,6.50
2018-01-15T18:54:55.680Z,6.40
2018-01-15T18:57:29.572Z,6.40
2018-01-15T18:59:57.154Z,6.40
2018-01-15T19:02:29.125Z,6.40
2018-01-15T19:04:56.675Z,6.30
2018-01-15T19:07:24.278Z,6.30
2018-01-15T19:09:51.863Z,6.30
2018-01-15T19:12:19.464Z,6.30
2018-01-15T19:14:47.044Z,6.30
2018-01-15T19:17:23.008Z,6.20
2018-01-15T19:19:50.609Z,6.20
2018-01-15T19:22:19.427Z,6.10
2018-01-15T19:24:47.061Z,6.10
2018-01-15T19:27:14.684Z,6.00
2018-01-15T19:29:42.278Z,6.00
2018-01-15T19:32:09.938Z,6.00
2018-01-15T19:37:44.684Z,6.00
2018-01-15T19:40:12.321Z,5.90
2018-01-15T19:42:39.961Z,5.90
2018-01-15T19:45:13.140Z,6.00
2018-01-15T19:47:46.465Z,6.00
2018-01-15T19:50:19.759Z,6.00
2018-01-15T19:52:52.897Z,6.00
2018-01-15T19:55:26.385Z,6.00
2018-01-15T19:57:59.870Z,6.00
2018-01-15T20:00:46.185Z,6.00
2018-01-15T20:03:19.440Z,6.10
2018-01-15T20:05:52.582Z,6.10
2018-01-15T20:08:25.807Z,6.10
2018-01-15T20:10:53.967Z,6.10
2018-01-15T20:13:21.554Z,6.10
2018-01-15T20:15:49.161Z,6.20
2018-01-15T20:18:21.238Z,6.20
2018-01-15T20:20:48.871Z,6.20
2018-01-15T20:23:16.472Z,6.30
2018-01-15T20:25:44.065Z,6.30
2018-01-15T20:28:11.658Z,6.40
2018-01-15T20:30:39.606Z,6.40
2018-01-15T20:33:09.332Z,6.40
2018-01-15T20:35:37.556Z,6.40
2018-01-15T20:38:05.344Z,6.40
2018-01-15T20:40:32.933Z,6.40
2018-01-15T20:43:00.715Z,6.50
2018-01-15T20:45:28.321Z,6.50
2018-01-15T20:47:55.969Z,6.50
2018-01-15T20:50:23.596Z,6.50
2018-01-15T20:53:03.112Z,6.60
2018-01-15T20:55:31.146Z,6.70
2018-01-15T20:57:58.799Z,6.60
2018-01-15T21:00:26.452Z,6.60
2018-01-15T21:02:54.018Z,6.60
2018-01-15T21:05:22.038Z,6.50
2018-01-15T21:07:49.694Z,6.50
2018-01-15T21:10:17.347Z,6.50
2018-01-15T21:12:45.000Z,6.60
2018-01-15T21:15:12.663Z,6.50
2018-01-15T21:17:40.659Z,6.60
2018-01-15T21:20:08.299Z,6.60
2018-01-15T21:22:35.859Z,6.60
2018-01-15T21:25:03.505Z,6.70
2018-01-15T21:27:31.134Z,6.60
2018-01-15T21:29:58.749Z,6.70
2018-01-15T21:32:26.369Z,6.70
2018-01-15T21:34:54.013Z,6.70
2018-01-15T21:37:21.670Z,6.70
2018-01-15T21:39:49.291Z,6.70
2018-01-15T21:42:16.914Z,6.70
2018-01-15T21:44:44.537Z,6.70
2018-01-15T21:47:12.175Z,6.60
2018-01-15T21:49:39.825Z,6.70
2018-01-15T21:52:07.473Z,6.60
2018-01-15T21:54:35.178Z,6.60
2018-01-15T21:57:02.740Z,6.60
2018-01-15T21:59:30.383Z,6.60
2018-01-15T22:01:57.934Z,6.60
2018-01-15T22:04:25.531Z,6.60
2018-01-15T22:06:53.162Z,6.70
2018-01-15T22:09:20.798Z,6.70
2018-01-15T22:11:48.440Z,6.70
2018-01-15T22:14:16.094Z,6.70
2018-01-15T22:16:43.651Z,6.70
2018-01-15T22:19:11.243Z,6.60
2018-01-15T22:21:38.856Z,6.60
2018-01-15T22:24:06.440Z,6.60
2018-01-15T22:26:34.467Z,6.70
2018-01-15T22:29:02.040Z,6.70
2018-01-15T22:31:29.647Z,6.70
2018-01-15T22:33:57.279Z,6.70
2018-01-15T22:36:24.888Z,6.70
2018-01-15T22:38:52.499Z,6.70
2018-01-15T22:41:20.101Z,6.70
2018-01-15T22:43:47.713Z,6.70
2018-01-15T22:46:15.314Z,6.60
2018-01-15T22:48:42.936Z,6.60
2018-01-15T22:51:10.945Z,6.60
2018-01-15T22:53:38.587Z,6.60
2018-01-15T22:56:06.165Z,6.60
2018-01-15T22:58:33.759Z,6.70
2018-01-15T23:01:01.369Z,6.70
2018-01-15T23:03:28.959Z,6.80
2018-01-15T23:05:56.585Z,6.80
2018-01-15T23:08:24.172Z,6.80
2018-01-15T23:10:51.784Z,6.80
2018-01-15T23:13:19.368Z,6.80
2018-01-15T23:15:46.948Z,6.80
2018-01-15T23:18:14.537Z,6.80
2018-01-15T23:20:42.098Z,6.80
2018-01-15T23:23:09.698Z,6.80
2018-01-15T23:25:37.277Z,6.80
2018-01-15T23:28:04.826Z,7.00
2018-01-15T23:30:32.443Z,7.10
2018-01-15T23:32:59.995Z,7.10
2018-01-15T23:35:27.975Z,7.20
2018-01-15T23:37:55.572Z,7.20
2018-01-15T23:40:23.122Z,7.30
2018-01-15T23:42:50.746Z,7.40
2018-01-15T23:45:18.295Z,7.60
2018-01-15T23:47:45.931Z,7.60
2018-01-15T23:50:13.563Z,7.60
2018-01-15T23:52:41.180Z,7.70
2018-01-15T23:55:08.753Z,7.80
2018-01-15T23:57:36.334Z,7.80
